Time;durP1;ratioP1;P1;durP2;ratioP2;P2;SDS_P1;SDS_P2;PMS_P1;PMS_P2;Temp;Humidity;BMP_temperature;BMP_pressure;BME280_temperature;BME280_humidity;BME280_pressure;Samples;Min_cycle;Max_cycle;Signal;HPM_P1;HPM_P2
2023/12/09 00:01:43;;;;;;;0.30;0.30;;;;;;;1.08;100.00;96969.88;5046878;28;20152;-67
2023/12/09 00:04:10;;;;;;;0.30;0.30;;;;;;;1.49;100.00;97060.47;5046970;28;20063;-67
2023/12/09 00:06:37;;;;;;;0.30;0.30;;;;;;;1.64;100.00;97034.72;5046743;28;20061;-66
2023/12/09 00:09:04;;;;;;;0.30;0.30;;;;;;;1.25;100.00;96960.97;5046545;28;20049;-66
2023/12/09 00:11:31;;;;;;;0.30;0.30;;;;;;;1.83;100.00;97031.75;5046300;28;20083;-68
2023/12/09 00:14:03;;;;;;;0.30;0.30;;;;;;;1.73;100.00;97027.38;5045482;28;20443;-67
2023/12/09 00:16:31;;;;;;;0.30;0.30;;;;;;;1.86;100.00;97033.84;5046427;28;20488;-68
2023/12/09 00:18:59;;;;;;;0.30;0.30;;;;;;;1.93;100.00;97047.88;5046450;28;20439;-67
2023/12/09 00:21:27;;;;;;;0.30;0.30;;;;;;;1.29;100.00;97006.44;5046201;28;20507;-67
2023/12/09 00:23:54;;;;;;;0.30;0.30;;;;;;;1.92;100.00;97029.84;5046526;28;20114;-67
2023/12/09 00:26:20;;;;;;;0.30;0.30;;;;;;;2.02;100.00;97029.59;5046324;28;20408;-68
2023/12/09 00:28:47;;;;;;;0.30;0.30;;;;;;;1.95;100.00;97034.69;5065125;28;20060;-67
2023/12/09 00:31:14;;;;;;;0.30;0.30;;;;;;;1.87;100.00;97033.53;5067849;28;20151;-68
2023/12/09 00:33:41;;;;;;;0.30;0.30;;;;;;;2.01;100.00;97044.38;5066646;28;20554;-66
2023/12/09 00:36:08;;;;;;;0.30;0.30;;;;;;;1.50;100.00;96966.56;5066649;28;20046;-66
2023/12/09 00:38:35;;;;;;;0.40;0.40;;;;;;;2.08;100.00;97044.72;5066182;28;20064;-67
2023/12/09 00:41:02;;;;;;;0.30;0.30;;;;;;;1.71;100.00;96991.38;5066316;28;20049;-67
2023/12/09 00:43:29;;;;;;;0.30;0.30;;;;;;;2.07;100.00;97048.56;5064765;28;20044;-66
2023/12/09 00:45:56;;;;;;;0.40;0.40;;;;;;;2.02;100.00;97048.69;5065908;28;20064;-67
2023/12/09 00:48:22;;;;;;;0.30;0.30;;;;;;;2.14;100.00;97037.97;5066463;28;20055;-67
2023/12/09 00:50:49;;;;;;;0.30;0.30;;;;;;;1.82;100.00;96992.72;5065842;28;20438;-67
2023/12/09 00:53:16;;;;;;;0.30;0.30;;;;;;;2.12;100.00;97040.25;5066116;28;20157;-66
2023/12/09 00:55:43;;;;;;;0.30;0.30;;;;;;;2.22;100.00;97043.47;5065808;28;20435;-67
2023/12/09 00:58:10;;;;;;;0.40;0.40;;;;;;;2.14;100.00;97040.72;5064198;28;20048;-68
2023/12/09 01:00:37;;;;;;;0.30;0.30;;;;;;;1.21;100.00;96922.63;5065652;28;20071;-66
2023/12/09 01:03:03;;;;;;;0.30;0.30;;;;;;;0.85;100.00;96885.69;5065956;28;20056;-66
2023/12/09 01:05:30;;;;;;;0.30;0.30;;;;;;;1.90;100.00;97040.31;5065043;28;20060;-66
2023/12/09 01:07:57;;;;;;;0.30;0.30;;;;;;;1.48;100.00;96977.00;5059778;28;20054;-66
2023/12/09 01:10:24;;;;;;;0.30;0.30;;;;;;;1.88;100.00;97045.28;5064023;28;20059;-68
2023/12/09 01:12:50;;;;;;;0.30;0.30;;;;;;;1.25;100.00;96972.69;5065526;28;20055;-67
2023/12/09 01:15:17;;;;;;;0.30;0.30;;;;;;;1.80;100.00;97044.13;5065033;28;20044;-67
2023/12/09 01:17:44;;;;;;;0.30;0.30;;;;;;;1.49;100.00;96985.97;5065196;28;20049;-68
2023/12/09 01:20:11;;;;;;;0.30;0.30;;;;;;;1.79;100.00;97044.44;5065197;28;20371;-68
2023/12/09 01:22:38;;;;;;;0.30;0.30;;;;;;;1.24;100.00;96965.66;5058532;28;20439;-67
2023/12/09 01:25:06;;;;;;;0.30;0.30;;;;;;;1.66;100.00;97037.13;5043886;28;20494;-67
2023/12/09 01:27:33;;;;;;;0.30;0.30;;;;;;;1.67;100.00;97034.09;5045487;28;20534;-67
2023/12/09 01:29:59;;;;;;;0.30;0.30;;;;;;;1.63;100.00;97032.31;5043834;28;20044;-67
2023/12/09 01:32:26;;;;;;;0.32;0.32;;;;;;;1.55;100.00;97033.84;5045079;28;20114;-67
2023/12/09 01:34:53;;;;;;;0.30;0.30;;;;;;;1.55;100.00;97026.47;5045059;28;20522;-67
2023/12/09 01:37:20;;;;;;;0.30;0.30;;;;;;;1.70;100.00;97038.09;5043557;28;20059;-67
2023/12/09 01:39:47;;;;;;;0.30;0.30;;;;;;;1.66;100.00;97026.22;5059946;28;20064;-67
2023/12/09 01:42:13;;;;;;;0.28;0.28;;;;;;;1.36;100.00;96990.41;5045040;28;20111;-67
2023/12/09 01:44:40;;;;;;;0.30;0.30;;;;;;;1.58;100.00;97017.66;5044838;28;20061;-66
2023/12/09 01:47:07;;;;;;;0.30;0.30;;;;;;;1.45;100.00;97026.72;5044841;28;20068;-67
2023/12/09 01:49:35;;;;;;;0.30;0.30;;;;;;;1.63;100.00;97032.31;5043230;28;20623;-67
2023/12/09 01:52:03;;;;;;;0.30;0.30;;;;;;;1.40;100.00;97040.53;5044799;28;20053;-67
2023/12/09 01:54:31;;;;;;;0.30;0.30;;;;;;;1.50;100.00;97037.53;5044685;28;20051;-67
2023/12/09 01:56:58;;;;;;;0.30;0.30;;;;;;;1.60;100.00;97043.84;5059827;28;20053;-67
2023/12/09 01:59:25;;;;;;;0.30;0.30;;;;;;;1.03;100.00;96991.81;5043469;28;20103;-67
2023/12/09 02:01:53;;;;;;;0.25;0.25;;;;;;;1.44;100.00;97035.22;5044682;28;20586;-67
2023/12/09 02:04:19;;;;;;;0.30;0.30;;;;;;;1.38;100.00;97053.66;5044400;28;20057;-67
2023/12/09 02:06:47;;;;;;;0.30;0.30;;;;;;;1.38;100.00;97048.22;5044594;28;20164;-67
2023/12/09 02:09:14;;;;;;;0.30;0.30;;;;;;;1.09;100.00;97006.94;5045118;28;20055;-66
2023/12/09 02:12:13;;;;;;;0.30;0.30;;;;;;;1.39;100.00;97052.53;5043405;28;20053;-66
2023/12/09 02:15:03;;;;;;;0.30;0.30;;;;;;;1.38;100.00;97048.22;5036450;28;20502;-67
2023/12/09 02:17:40;;;;;;;0.30;0.30;;;;;;;0.75;100.00;96951.34;5044444;28;20053;-66
2023/12/09 02:20:11;;;;;;;0.40;0.40;;;;;;;1.47;100.00;97051.78;5044419;28;20541;-66
2023/12/09 02:22:37;;;;;;;0.30;0.30;;;;;;;1.07;100.00;96990.09;5053690;28;20056;-67
2023/12/09 02:25:05;;;;;;;0.30;0.30;;;;;;;1.47;100.00;97057.25;5064256;28;20058;-66
2023/12/09 02:27:38;;;;;;;0.30;0.30;;;;;;;1.54;100.00;97067.72;5062663;28;20496;-66
2023/12/09 02:30:21;;;;;;;0.30;0.30;;;;;;;1.03;100.00;97010.91;5064408;28;20416;-66
2023/12/09 02:32:49;;;;;;;0.30;0.30;;;;;;;1.28;100.00;97053.91;5064308;28;20053;-65
2023/12/09 02:35:17;;;;;;;0.30;0.30;;;;;;;0.65;100.00;97055.97;5064465;28;20056;-66
2023/12/09 02:37:46;;;;;;;0.30;0.30;;;;;;;0.85;100.00;97049.25;5063853;28;20040;-67
2023/12/09 02:40:14;;;;;;;0.30;0.30;;;;;;;0.92;100.00;97044.97;5064365;28;20155;-66
2023/12/09 02:42:42;;;;;;;0.30;0.30;;;;;;;0.76;100.00;96997.38;5062808;28;20050;-66
2023/12/09 02:45:10;;;;;;;0.30;0.30;;;;;;;1.23;100.00;97043.13;5064121;28;20084;-67
2023/12/09 02:47:37;;;;;;;0.30;0.30;;;;;;;0.92;100.00;97006.00;5064532;28;20095;-67
2023/12/09 02:50:05;;;;;;;0.30;0.30;;;;;;;1.08;100.00;97026.34;5064421;28;20045;-66
2023/12/09 02:52:31;;;;;;;0.30;0.30;;;;;;;1.23;100.00;97058.72;5064479;28;20503;-67
2023/12/09 02:54:58;;;;;;;0.30;0.30;;;;;;;0.85;100.00;96984.66;5067116;28;20063;-67
2023/12/09 02:57:25;;;;;;;0.30;0.30;;;;;;;0.85;100.00;96971.00;5066452;28;20054;-67
2023/12/09 02:59:52;;;;;;;0.30;0.30;;;;;;;1.36;100.00;97050.44;5064293;28;20096;-68
2023/12/09 03:02:19;;;;;;;0.30;0.30;;;;;;;1.30;100.00;97051.69;5063218;28;20506;-67
2023/12/09 03:04:45;;;;;;;0.30;0.30;;;;;;;1.19;100.00;97044.88;5064196;28;20067;-67
2023/12/09 03:07:12;;;;;;;0.30;0.30;;;;;;;1.20;100.00;97051.94;5063087;28;20052;-68
2023/12/09 03:09:39;;;;;;;0.30;0.30;;;;;;;1.13;100.00;97027.03;5064394;28;20056;-67
2023/12/09 03:12:06;;;;;;;0.30;0.30;;;;;;;1.29;100.00;97050.09;5063982;28;20048;-67
2023/12/09 03:14:33;;;;;;;0.30;0.30;;;;;;;1.13;100.00;97005.22;5064423;28;20075;-68
2023/12/09 03:16:59;;;;;;;0.30;0.30;;;;;;;1.27;100.00;97041.41;5064113;28;20052;-67
2023/12/09 03:19:26;;;;;;;0.30;0.30;;;;;;;1.02;100.00;97044.75;5064137;28;20055;-67
2023/12/09 03:21:53;;;;;;;0.30;0.30;;;;;;;0.95;100.00;97038.13;5063397;28;20473;-66
2023/12/09 03:24:20;;;;;;;0.20;0.20;;;;;;;0.80;100.00;97014.75;5062269;28;20514;-67
2023/12/09 03:26:53;;;;;;;0.30;0.30;;;;;;;0.92;100.00;97047.72;5063929;28;20444;-67
2023/12/09 03:29:20;;;;;;;0.30;0.30;;;;;;;0.91;100.00;97037.94;5064515;28;20053;-68
2023/12/09 03:31:48;;;;;;;0.30;0.30;;;;;;;1.04;100.00;97047.94;5067257;28;20048;-67
2023/12/09 03:34:15;;;;;;;0.30;0.30;;;;;;;0.97;100.00;97036.69;5067333;28;20663;-66
2023/12/09 03:36:42;;;;;;;0.30;0.30;;;;;;;0.96;100.00;97040.53;5065232;28;20052;-66
2023/12/09 03:39:09;;;;;;;0.30;0.30;;;;;;;1.11;100.00;97040.16;5078181;28;20059;-66
2023/12/09 03:41:36;;;;;;;0.30;0.30;;;;;;;1.24;100.00;97044.75;5087281;28;20495;-65
2023/12/09 03:44:03;;;;;;;0.30;0.30;;;;;;;1.10;100.00;97041.28;5087158;28;20059;-68
2023/12/09 03:46:30;;;;;;;0.30;0.30;;;;;;;1.12;100.00;97039.03;5087149;28;20078;-65
2023/12/09 03:48:57;;;;;;;0.30;0.30;;;;;;;0.65;100.00;96955.13;5087321;28;20055;-66
2023/12/09 03:51:24;;;;;;;0.30;0.30;;;;;;;1.11;100.00;97031.97;5085676;28;20052;-65
2023/12/09 03:53:50;;;;;;;0.30;0.30;;;;;;;0.96;100.00;97040.53;5085681;28;20052;-66
2023/12/09 03:56:17;;;;;;;0.30;0.30;;;;;;;0.40;100.00;96933.94;5085689;28;20226;-66
2023/12/09 03:58:44;;;;;;;0.30;0.30;;;;;;;0.58;100.00;96952.03;5087186;28;20050;-65
2023/12/09 04:01:11;;;;;;;0.30;0.30;;;;;;;1.04;100.00;97025.34;5076922;28;20052;-65
2023/12/09 04:03:38;;;;;;;0.30;0.30;;;;;;;0.94;100.00;97037.31;5066573;28;20664;-64
2023/12/09 04:06:05;;;;;;;0.30;0.30;;;;;;;0.89;100.00;97029.25;5066351;28;20510;-64
2023/12/09 04:08:32;;;;;;;0.30;0.30;;;;;;;1.05;100.00;97027.78;5066804;28;20652;-65
2023/12/09 04:10:59;;;;;;;0.30;0.30;;;;;;;0.88;100.00;97014.00;5066665;28;20067;-65
2023/12/09 04:13:27;;;;;;;0.30;0.30;;;;;;;1.02;100.00;97033.84;5065226;28;20098;-67
2023/12/09 04:15:54;;;;;;;0.30;0.30;;;;;;;0.95;99.25;97033.47;5065040;28;20523;-66
2023/12/09 04:18:20;;;;;;;0.30;0.30;;;;;;;-0.34;99.38;96863.75;5066593;28;20559;-66
2023/12/09 04:20:47;;;;;;;0.30;0.30;;;;;;;0.74;100.00;97045.97;5066323;28;20044;-65
2023/12/09 04:23:15;;;;;;;0.30;0.30;;;;;;;0.59;100.00;97051.75;5077571;28;20059;-66
2023/12/09 04:25:42;;;;;;;0.22;0.22;;;;;;;0.58;100.00;97039.25;5086394;28;20058;-66
2023/12/09 04:28:08;;;;;;;0.30;0.30;;;;;;;0.53;100.00;97042.09;5085268;28;20437;-67
2023/12/09 04:30:35;;;;;;;0.22;0.22;;;;;;;0.62;100.00;97040.22;5086185;28;20087;-65
2023/12/09 04:33:02;;;;;;;0.30;0.30;;;;;;;0.41;100.00;96998.19;5086235;28;20048;-66
2023/12/09 04:35:29;;;;;;;0.30;0.30;;;;;;;0.77;100.00;97048.06;5084681;28;20075;-67
2023/12/09 04:37:56;;;;;;;0.30;0.30;;;;;;;-0.07;100.00;96923.59;5086461;28;20048;-66
2023/12/09 04:40:22;;;;;;;0.30;0.30;;;;;;;0.81;100.00;97040.88;5084668;28;20071;-66
2023/12/09 04:42:49;;;;;;;0.30;0.30;;;;;;;0.78;100.00;97054.31;5086418;28;20070;-66
2023/12/09 04:45:16;;;;;;;0.30;0.30;;;;;;;0.77;100.00;97037.19;5086259;28;20526;-65
2023/12/09 04:47:43;;;;;;;0.30;0.30;;;;;;;0.63;100.00;97016.53;5086044;28;20052;-66
2023/12/09 04:50:10;;;;;;;0.30;0.30;;;;;;;0.91;100.00;97032.47;5085914;28;20060;-66
2023/12/09 04:52:37;;;;;;;0.30;0.30;;;;;;;0.91;100.00;97054.28;5086344;28;20500;-66
2023/12/09 04:55:05;;;;;;;0.30;0.30;;;;;;;0.94;100.00;97059.13;5084936;28;20407;-67
2023/12/09 04:57:31;;;;;;;0.20;0.20;;;;;;;0.84;100.00;97037.53;5086196;28;20063;-67
2023/12/09 04:59:59;;;;;;;0.30;0.30;;;;;;;0.82;99.69;97026.13;5086127;28;20056;-66
2023/12/09 05:02:25;;;;;;;0.20;0.20;;;;;;;0.91;98.49;97059.75;5086072;28;20425;-66
2023/12/09 05:04:53;;;;;;;0.30;0.30;;;;;;;0.94;98.35;97053.66;5085670;28;20048;-67
2023/12/09 05:07:19;;;;;;;0.30;0.30;;;;;;;0.86;97.30;97069.94;5084228;28;20060;-67
2023/12/09 05:09:46;;;;;;;0.30;0.30;;;;;;;0.77;99.00;97053.53;5084303;28;20121;-64
2023/12/09 05:12:14;;;;;;;0.30;0.30;;;;;;;0.81;99.50;97065.41;5085889;28;20411;-67
2023/12/09 05:14:40;;;;;;;0.32;0.32;;;;;;;0.67;99.81;97061.94;5084219;28;20044;-67
2023/12/09 05:17:07;;;;;;;0.30;0.30;;;;;;;0.71;99.79;97065.63;5085622;28;20473;-67
2023/12/09 05:19:34;;;;;;;0.30;0.30;;;;;;;-0.36;100.00;97023.78;5085598;28;20054;-66
2023/12/09 05:22:01;;;;;;;0.20;0.20;;;;;;;-0.01;100.00;97072.91;5085095;28;20056;-66
2023/12/09 05:24:28;;;;;;;0.30;0.30;;;;;;;-0.03;100.00;97044.34;5083674;28;20522;-67
2023/12/09 05:26:57;;;;;;;0.30;0.30;;;;;;;-0.57;100.00;96946.41;5085133;28;20846;-67
2023/12/09 05:29:24;;;;;;;0.30;0.30;;;;;;;0.06;100.00;97058.88;5083931;28;20044;-65
2023/12/09 05:31:50;;;;;;;0.25;0.25;;;;;;;0.29;100.00;97082.38;5084724;28;20052;-66
2023/12/09 05:34:17;;;;;;;0.25;0.25;;;;;;;-0.49;100.00;96960.09;5083383;28;20521;-65
2023/12/09 05:36:44;;;;;;;0.30;0.30;;;;;;;0.41;100.00;97093.53;5084987;28;20367;-65
2023/12/09 05:39:11;;;;;;;0.30;0.30;;;;;;;0.45;100.00;97100.00;5085066;28;20131;-66
2023/12/09 05:41:41;;;;;;;0.22;0.22;;;;;;;0.41;100.00;97099.00;5083430;28;20098;-66
2023/12/09 05:44:08;;;;;;;0.30;0.30;;;;;;;0.28;100.00;97078.03;5085207;28;20051;-67
2023/12/09 05:46:36;;;;;;;0.30;0.30;;;;;;;0.43;100.00;97102.22;5083709;28;20058;-66
2023/12/09 05:49:06;;;;;;;0.22;0.22;;;;;;;0.39;100.00;97101.22;5087279;28;20188;-65
2023/12/09 05:51:33;;;;;;;0.30;0.30;;;;;;;-0.53;100.00;97056.19;5083387;28;20052;-65
2023/12/09 05:54:00;;;;;;;0.20;0.20;;;;;;;-0.29;100.00;97040.53;5081688;28;20060;-65
2023/12/09 05:56:26;;;;;;;0.30;0.30;;;;;;;0.22;100.00;97106.50;5082935;28;20109;-65
2023/12/09 05:58:53;;;;;;;0.20;0.20;;;;;;;0.28;100.00;97105.28;5083111;28;20048;-64
2023/12/09 06:01:20;;;;;;;0.28;0.28;;;;;;;0.33;100.00;97097.00;5076773;28;20419;-65
2023/12/09 06:03:47;;;;;;;0.25;0.25;;;;;;;0.37;100.00;97103.44;5063810;28;20060;-65
2023/12/09 06:06:13;;;;;;;0.30;0.30;;;;;;;0.41;100.00;97099.00;5064502;28;20101;-66
2023/12/09 06:08:41;;;;;;;0.30;0.30;;;;;;;0.49;99.53;97114.63;5063513;28;20044;-65
2023/12/09 06:11:07;;;;;;;0.30;0.30;;;;;;;0.48;100.00;97123.91;5062911;28;20059;-64
2023/12/09 06:13:34;;;;;;;0.30;0.30;;;;;;;0.60;99.82;97112.50;5064484;28;20075;-64
2023/12/09 06:16:01;;;;;;;0.30;0.30;;;;;;;0.56;100.00;97128.66;5062882;28;20067;-64
2023/12/09 06:18:27;;;;;;;0.30;0.30;;;;;;;-0.29;99.50;96980.66;5064003;28;20055;-64
2023/12/09 06:20:54;;;;;;;0.30;0.30;;;;;;;0.70;99.89;97128.63;5064018;28;20063;-64
2023/12/09 06:23:21;;;;;;;0.30;0.30;;;;;;;0.34;100.00;97060.47;5075029;28;20058;-64
2023/12/09 06:25:48;;;;;;;0.30;0.30;;;;;;;1.04;100.00;97131.72;5082373;28;20056;-64
2023/12/09 06:28:15;;;;;;;0.30;0.30;;;;;;;0.66;100.00;97073.94;5084798;28;20060;-64
2023/12/09 06:30:41;;;;;;;0.30;0.30;;;;;;;0.90;100.00;97129.00;5084350;28;20067;-66
2023/12/09 06:33:08;;;;;;;0.30;0.30;;;;;;;1.14;100.00;97124.09;5084880;28;20550;-65
2023/12/09 06:35:35;;;;;;;0.30;0.30;;;;;;;0.64;99.53;97037.19;5084561;28;20404;-64
2023/12/09 06:38:02;;;;;;;0.30;0.30;;;;;;;1.19;100.00;97132.16;5082964;28;20072;-64
2023/12/09 06:40:29;;;;;;;0.30;0.30;;;;;;;1.08;100.00;97080.88;5082662;28;20139;-64
2023/12/09 06:42:56;;;;;;;0.30;0.30;;;;;;;1.50;99.17;97138.50;5082944;28;20120;-64
2023/12/09 06:45:22;;;;;;;0.30;0.30;;;;;;;1.75;99.95;97136.25;5082861;28;20044;-65
2023/12/09 06:47:53;;;;;;;0.30;0.30;;;;;;;2.00;97.38;97127.41;5083237;28;20437;-63
2023/12/09 06:50:21;;;;;;;0.30;0.30;;;;;;;1.22;96.16;97013.44;5084372;28;20059;-65
2023/12/09 06:52:48;;;;;;;0.30;0.30;;;;;;;2.24;94.59;97141.53;5082948;28;20499;-64
2023/12/09 06:55:15;;;;;;;0.30;0.30;;;;;;;2.13;93.96;97145.66;5084234;28;20059;-64
2023/12/09 06:57:41;;;;;;;0.38;0.38;;;;;;;1.48;94.42;97026.13;5084753;28;20055;-66
2023/12/09 07:00:09;;;;;;;0.30;0.30;;;;;;;2.27;94.57;97154.56;5073681;28;20055;-65
2023/12/09 07:02:36;;;;;;;0.30;0.30;;;;;;;0.22;94.82;96801.47;5077157;28;20129;-77
2023/12/09 07:05:22;;;;;;;0.40;0.40;;;;;;;2.62;94.81;97159.06;5065987;28;20423;-69
2023/12/09 07:07:50;;;;;;;0.40;0.40;;;;;;;1.76;95.23;96982.25;5079650;28;20048;-65
2023/12/09 07:10:17;;;;;;;0.40;0.40;;;;;;;2.80;95.87;97116.94;5072329;28;20063;-62
2023/12/09 07:12:44;;;;;;;0.40;0.40;;;;;;;3.19;93.20;97157.91;5080281;28;20127;-67
2023/12/09 07:15:15;;;;;;;0.40;0.40;;;;;;;1.07;92.68;96807.38;5082144;28;20051;-69
2023/12/09 07:17:42;;;;;;;0.40;0.40;;;;;;;3.14;91.27;97119.75;5085082;28;20060;-68
2023/12/09 07:20:09;;;;;;;0.40;0.40;;;;;;;2.10;88.93;96965.97;5086297;28;20121;-66
2023/12/09 07:22:36;;;;;;;0.40;0.40;;;;;;;3.19;89.43;97141.50;5075709;28;20076;-68
2023/12/09 07:25:03;;;;;;;0.40;0.40;;;;;;;2.30;90.34;97061.00;5084828;28;20056;-68
2023/12/09 07:27:30;;;;;;;0.40;0.40;;;;;;;2.26;91.49;97054.59;5070716;28;20060;-69
2023/12/09 07:29:57;;;;;;;0.47;0.47;;;;;;;3.52;91.00;97144.53;5065672;28;20052;-65
2023/12/09 07:32:24;;;;;;;0.40;0.40;;;;;;;2.86;89.46;97033.63;5067375;28;20560;-69
2023/12/09 07:34:51;;;;;;;0.40;0.40;;;;;;;3.88;87.29;97162.25;5066968;28;20052;-63
2023/12/09 07:37:22;;;;;;;0.50;0.50;;;;;;;3.94;87.67;97138.22;5076491;28;20052;-63
2023/12/09 07:39:49;;;;;;;0.40;0.40;;;;;;;4.15;86.66;97147.34;5071284;28;20052;-65
2023/12/09 07:42:16;;;;;;;0.45;0.45;;;;;;;2.23;85.60;96818.28;5080708;28;20143;-70
2023/12/09 07:44:43;;;;;;;0.50;0.50;;;;;;;4.44;85.04;97148.22;5074687;28;20057;-65
2023/12/09 07:47:10;;;;;;;0.40;0.40;;;;;;;3.82;85.52;97023.84;5079454;28;20048;-67
2023/12/09 07:49:37;;;;;;;0.50;0.50;;;;;;;3.80;85.25;96985.00;5080537;28;20052;-64
2023/12/09 07:52:05;;;;;;;0.50;0.50;;;;;;;3.69;82.14;96953.63;5085461;28;20052;-65
2023/12/09 07:54:32;;;;;;;0.50;0.50;;;;;;;5.07;81.94;97130.00;5080253;28;20078;-69
2023/12/09 07:56:59;;;;;;;0.50;0.50;;;;;;;5.10;80.91;97130.16;5079025;28;20131;-64
2023/12/09 07:59:25;;;;;;;0.50;0.50;;;;;;;5.20;81.15;97128.97;5085666;28;20044;-62
2023/12/09 08:01:52;;;;;;;0.50;0.50;;;;;;;5.27;82.83;97129.22;5081436;28;20048;-65
2023/12/09 08:04:19;;;;;;;0.50;0.50;;;;;;;5.13;84.56;97129.47;5077087;28;20538;-63
2023/12/09 08:06:46;;;;;;;0.50;0.50;;;;;;;5.09;83.75;97122.25;5081428;28;20407;-66
2023/12/09 08:09:13;;;;;;;0.40;0.40;;;;;;;5.11;83.82;97130.94;5072364;28;20052;-63
2023/12/09 08:11:40;;;;;;;0.50;0.50;;;;;;;5.05;84.58;97118.53;5066645;28;20048;-64
2023/12/09 08:14:07;;;;;;;0.50;0.50;;;;;;;5.25;84.53;97137.00;5065213;28;20084;-64
2023/12/09 08:16:36;;;;;;;0.50;0.50;;;;;;;5.13;84.43;97128.66;5064798;28;20052;-64
2023/12/09 08:19:03;;;;;;;0.50;0.50;;;;;;;5.29;82.90;97121.44;5066128;28;20523;-64
2023/12/09 08:21:37;;;;;;;0.60;0.60;;;;;;;5.12;83.34;97138.06;5065986;28;20064;-64
2023/12/09 08:24:04;;;;;;;0.50;0.50;;;;;;;5.07;84.21;97119.03;5066058;28;20057;-65
2023/12/09 08:26:32;;;;;;;0.50;0.50;;;;;;;5.40;84.89;97125.41;5065807;28;20049;-65
2023/12/09 08:29:00;;;;;;;0.50;0.50;;;;;;;4.86;84.80;97068.78;5066120;28;20052;-63
2023/12/09 08:31:27;;;;;;;0.50;0.50;;;;;;;5.18;85.91;97131.22;5064465;28;20098;-63
2023/12/09 08:33:54;;;;;;;0.52;0.52;;;;;;;5.40;84.93;97128.16;5065800;28;20067;-65
2023/12/09 08:36:20;;;;;;;0.60;0.60;;;;;;;5.38;86.12;97124.94;5065632;28;20151;-64
2023/12/09 08:38:47;;;;;;;0.60;0.60;;;;;;;5.51;85.88;97124.69;5066018;28;20059;-63
2023/12/09 08:41:14;;;;;;;0.60;0.60;;;;;;;5.55;86.57;97122.84;5066202;28;20049;-63
2023/12/09 08:43:41;;;;;;;0.57;0.57;;;;;;;5.72;85.71;97113.66;5065841;28;20051;-62
2023/12/09 08:46:07;;;;;;;0.50;0.50;;;;;;;5.59;85.40;97115.56;5063904;28;20495;-63
2023/12/09 08:48:34;;;;;;;0.50;0.50;;;;;;;5.71;84.82;97117.53;5065681;28;20052;-63
2023/12/09 08:51:01;;;;;;;0.50;0.50;;;;;;;5.52;83.87;97115.28;5065817;28;20139;-66
2023/12/09 08:53:29;;;;;;;0.50;0.50;;;;;;;5.81;83.29;97106.13;5080897;28;20048;-64
2023/12/09 08:55:56;;;;;;;0.50;0.50;;;;;;;5.88;82.85;97114.69;5085166;28;20051;-63
2023/12/09 08:58:23;;;;;;;0.50;0.50;;;;;;;5.76;84.88;97109.91;5083285;28;20440;-63
2023/12/09 09:00:50;;;;;;;0.60;0.60;;;;;;;6.05;83.25;97106.25;5085837;28;20044;-64
2023/12/09 09:03:19;;;;;;;0.50;0.50;;;;;;;6.12;81.68;97100.97;5084404;28;20121;-64
2023/12/09 09:05:46;;;;;;;0.60;0.60;;;;;;;6.03;81.80;97097.53;5085782;28;20060;-65
2023/12/09 09:08:13;;;;;;;0.60;0.60;;;;;;;5.47;81.48;96996.59;5084560;28;20056;-65
2023/12/09 09:10:40;;;;;;;0.60;0.60;;;;;;;6.21;81.24;97092.66;5067579;28;20552;-64
2023/12/09 09:13:07;;;;;;;0.60;0.60;;;;;;;6.28;79.89;97088.19;5086190;28;20150;-65
2023/12/09 09:15:35;;;;;;;0.60;0.60;;;;;;;5.60;79.62;96990.78;5084355;28;20056;-66
2023/12/09 09:18:02;;;;;;;0.60;0.60;;;;;;;6.33;80.40;97085.22;5085869;28;20050;-65
2023/12/09 09:20:29;;;;;;;0.60;0.60;;;;;;;6.43;80.63;97073.78;5083852;28;20048;-66
2023/12/09 09:22:56;;;;;;;0.50;0.50;;;;;;;6.61;80.77;97072.41;5085144;28;20048;-65
2023/12/09 09:25:23;;;;;;;0.60;0.60;;;;;;;6.76;80.48;97066.22;5085318;28;20131;-65
2023/12/09 09:27:49;;;;;;;0.60;0.60;;;;;;;6.85;80.05;97064.13;5085234;28;20113;-65
2023/12/09 09:30:20;;;;;;;0.60;0.60;;;;;;;6.90;78.29;97017.09;5085446;28;20048;-66
2023/12/09 09:32:47;;;;;;;0.60;0.60;;;;;;;7.38;77.35;97055.53;5084052;28;20637;-65
2023/12/09 09:35:14;;;;;;;0.60;0.60;;;;;;;7.51;75.03;97053.53;5083942;28;20058;-65
2023/12/09 09:37:41;;;;;;;0.60;0.60;;;;;;;7.47;74.67;97058.94;5083765;28;20055;-66
2023/12/09 09:40:11;;;;;;;0.60;0.60;;;;;;;7.51;73.64;97070.06;5085958;28;20070;-65
2023/12/09 09:42:41;;;;;;;0.70;0.70;;;;;;;7.48;74.77;97054.22;5086067;28;20219;-65
2023/12/09 09:45:08;;;;;;;0.60;0.60;;;;;;;7.49;74.61;97044.81;5083413;28;20062;-65
2023/12/09 09:47:39;;;;;;;0.60;0.60;;;;;;;7.01;74.55;96954.88;5084862;28;20062;-65
2023/12/09 09:50:10;;;;;;;0.70;0.70;;;;;;;7.64;73.27;97042.13;5083574;28;20497;-65
2023/12/09 09:52:41;;;;;;;0.70;0.70;;;;;;;7.55;71.77;96983.59;5084805;28;20058;-66
2023/12/09 09:55:08;;;;;;;0.65;0.65;;;;;;;7.53;71.69;96991.41;5083398;28;20133;-66
2023/12/09 09:57:36;;;;;;;0.70;0.70;;;;;;;7.98;69.31;97028.84;5085019;28;20106;-67
2023/12/09 10:00:14;;;;;;;0.63;0.63;;;;;;;8.15;70.01;97037.59;5084837;28;20130;-67
2023/12/09 10:02:43;;;;;;;0.60;0.60;;;;;;;8.27;69.84;97036.72;5085062;28;20048;-67
2023/12/09 10:05:16;;;;;;;0.70;0.70;;;;;;;8.28;71.34;97019.03;5084842;28;20052;-66
2023/12/09 10:07:44;;;;;;;0.70;0.70;;;;;;;8.27;66.76;97020.16;5084791;28;20437;-66
2023/12/09 10:10:13;;;;;;;0.60;0.60;;;;;;;8.25;68.41;97028.00;5083573;28;20051;-66
2023/12/09 10:12:40;;;;;;;0.60;0.60;;;;;;;6.47;67.70;96728.03;5085284;28;20415;-66
2023/12/09 10:15:08;;;;;;;0.70;0.70;;;;;;;7.91;68.33;96926.59;5084305;28;20057;-66
2023/12/09 10:17:35;;;;;;;0.70;0.70;;;;;;;8.06;65.58;96936.84;5084862;28;20454;-65
2023/12/09 10:20:05;;;;;;;0.60;0.60;;;;;;;8.46;64.70;97011.97;5084572;28;20063;-65
2023/12/09 10:22:34;;;;;;;0.73;0.73;;;;;;;8.27;66.47;96931.84;5084239;28;20060;-66
2023/12/09 10:25:00;;;;;;;0.80;0.80;;;;;;;8.89;63.20;97009.06;5084558;28;20051;-66
2023/12/09 10:27:27;;;;;;;0.70;0.70;;;;;;;8.87;64.43;97003.91;5083959;28;20071;-66
2023/12/09 10:29:58;;;;;;;0.70;0.70;;;;;;;9.00;62.29;96999.03;5084487;28;20083;-67
2023/12/09 10:32:26;;;;;;;0.70;0.70;;;;;;;8.55;62.41;96910.47;5084745;28;20518;-66
2023/12/09 10:34:54;;;;;;;0.70;0.70;;;;;;;9.19;61.86;96996.31;5084130;28;20052;-66
2023/12/09 10:37:21;;;;;;;0.70;0.70;;;;;;;8.85;61.49;96952.94;5084081;28;20494;-66
2023/12/09 10:39:51;;;;;;;0.70;0.70;;;;;;;9.23;60.85;96994.44;5087629;28;20299;-67
2023/12/09 10:42:18;;;;;;;0.80;0.80;;;;;;;9.35;60.55;96994.28;5087191;28;20044;-65
2023/12/09 10:44:47;;;;;;;0.73;0.73;;;;;;;9.09;57.64;96908.44;5088449;28;20402;-67
2023/12/09 10:47:14;;;;;;;0.70;0.70;;;;;;;9.04;58.20;96875.63;5088476;28;20054;-67
2023/12/09 10:49:40;;;;;;;0.70;0.70;;;;;;;9.60;57.06;96979.00;5088290;28;20056;-66
2023/12/09 10:52:07;;;;;;;0.70;0.70;;;;;;;9.58;55.08;96995.13;5088439;28;20060;-66
2023/12/09 10:54:34;;;;;;;0.70;0.70;;;;;;;9.53;54.31;96995.44;5088335;28;20056;-66
2023/12/09 10:57:03;;;;;;;0.70;0.70;;;;;;;9.57;54.14;96985.25;5088533;28;20087;-65
2023/12/09 10:59:32;;;;;;;0.80;0.80;;;;;;;9.65;54.27;96989.75;5086510;28;20052;-65
2023/12/09 11:02:01;;;;;;;0.80;0.80;;;;;;;9.48;53.81;96992.97;5086660;28;20573;-67
2023/12/09 11:04:28;;;;;;;0.70;0.70;;;;;;;9.06;54.65;96947.88;5087809;28;20048;-66
2023/12/09 11:06:59;;;;;;;0.80;0.80;;;;;;;9.26;55.15;96968.84;5088066;28;20079;-66
2023/12/09 11:09:26;;;;;;;0.70;0.70;;;;;;;9.63;55.21;96964.44;5086892;28;20044;-66
2023/12/09 11:11:54;;;;;;;0.80;0.80;;;;;;;9.67;53.47;96983.88;5086561;28;20101;-67
2023/12/09 11:14:25;;;;;;;0.73;0.73;;;;;;;9.74;53.20;96984.78;5087954;28;20517;-67
2023/12/09 11:16:53;;;;;;;0.70;0.70;;;;;;;9.90;53.61;96991.03;5088020;28;20520;-67
2023/12/09 11:19:22;;;;;;;0.80;0.80;;;;;;;10.10;53.10;96995.38;5087395;28;20052;-65
2023/12/09 11:21:49;;;;;;;0.80;0.80;;;;;;;9.78;52.81;96952.47;5087751;28;20117;-66
2023/12/09 11:24:18;;;;;;;0.80;0.80;;;;;;;9.57;53.47;96924.41;5087649;28;20150;-68
2023/12/09 11:26:46;;;;;;;0.80;0.80;;;;;;;9.12;54.34;96985.09;5087272;28;20049;-65
2023/12/09 11:29:15;;;;;;;0.70;0.70;;;;;;;9.56;54.97;96969.84;5087347;28;20590;-66
2023/12/09 11:31:46;;;;;;;0.70;0.70;;;;;;;9.98;54.59;96984.47;5086265;28;20561;-66
2023/12/09 11:34:17;;;;;;;0.73;0.73;;;;;;;10.20;53.61;96972.63;5087322;28;20462;-66
2023/12/09 11:36:46;;;;;;;0.80;0.80;;;;;;;10.25;52.12;96964.03;5086003;28;20426;-65
2023/12/09 11:39:17;;;;;;;0.80;0.80;;;;;;;10.26;52.13;96962.84;5087542;28;20121;-66